createdAt,value
2018-09-19T00:00:17.083Z,14.76
2018-09-19T00:01:17.134Z,14.76
2018-09-19T00:02:16.410Z,14.84
2018-09-19T00:03:16.676Z,14.87
2018-09-19T00:04:16.959Z,14.83
2018-09-19T00:05:16.236Z,14.68
2018-09-19T00:06:16.507Z,14.67
2018-09-19T00:07:16.778Z,14.64
2018-09-19T00:08:17.053Z,14.66
2018-09-19T00:09:16.337Z,14.56
2018-09-19T00:10:16.627Z,14.52
2018-09-19T00:11:16.673Z,14.52
2018-09-19T00:12:16.948Z,14.53
2018-09-19T00:13:16.217Z,14.53
2018-09-19T00:14:16.493Z,14.50
2018-09-19T00:15:16.766Z,14.46
2018-09-19T00:16:17.034Z,14.44
2018-09-19T00:17:16.295Z,14.36
2018-09-19T00:18:16.569Z,14.40
2018-09-19T00:19:16.844Z,14.36
2018-09-19T00:20:17.193Z,14.36
2018-09-19T00:21:17.159Z,14.40
2018-09-19T00:22:16.433Z,14.46
2018-09-19T00:23:16.721Z,14.47
2018-09-19T00:24:16.999Z,14.44
2018-09-19T00:25:16.287Z,14.40
2018-09-19T00:26:16.583Z,14.41
2018-09-19T00:27:16.875Z,14.43
2018-09-19T00:28:16.269Z,14.44
2018-09-19T00:29:16.556Z,14.53
2018-09-19T00:30:16.838Z,14.57
2018-09-19T00:31:16.894Z,14.59
2018-09-19T00:32:17.171Z,14.57
2018-09-19T00:33:16.465Z,14.53
2018-09-19T00:34:16.736Z,14.49
2018-09-19T00:35:17.008Z,14.49
2018-09-19T00:36:16.321Z,14.49
2018-09-19T00:37:16.607Z,14.49
2018-09-19T00:38:16.871Z,14.53
2018-09-19T00:39:17.148Z,14.60
2018-09-19T00:40:16.431Z,14.59
2018-09-19T00:41:16.461Z,14.60
2018-09-19T00:42:16.741Z,14.63
2018-09-19T00:43:17.021Z,14.62
2018-09-19T00:44:16.304Z,14.64
2018-09-19T00:45:16.588Z,14.63
2018-09-19T00:46:16.862Z,14.67
2018-09-19T00:47:17.149Z,14.68
2018-09-19T00:48:16.425Z,14.68
2018-09-19T00:49:16.696Z,14.74
2018-09-19T00:50:16.972Z,14.70
2018-09-19T00:51:17.012Z,14.71
2018-09-19T00:52:16.274Z,14.71
2018-09-19T00:53:16.542Z,14.74
2018-09-19T00:54:16.809Z,14.74
2018-09-19T00:55:17.087Z,14.74
2018-09-19T00:56:16.368Z,14.74
2018-09-19T00:57:16.642Z,14.70
2018-09-19T00:58:16.921Z,14.70
2018-09-19T00:59:17.189Z,14.74
2018-09-19T01:00:16.473Z,14.76
2018-09-19T01:01:16.516Z,14.76
2018-09-19T01:02:16.781Z,14.80
2018-09-19T01:03:17.066Z,14.81
2018-09-19T01:04:16.352Z,14.78
2018-09-19T01:05:16.659Z,14.74
2018-09-19T01:06:16.947Z,14.74
2018-09-19T01:07:16.235Z,14.74
2018-09-19T01:08:16.498Z,14.73
2018-09-19T01:09:16.776Z,14.74
2018-09-19T01:10:17.060Z,14.74
2018-09-19T01:11:17.101Z,14.77
2018-09-19T01:12:16.380Z,14.73
2018-09-19T01:13:16.652Z,14.71
2018-09-19T01:14:16.945Z,14.70
2018-09-19T01:15:16.234Z,14.83
2018-09-19T01:16:16.501Z,14.80
2018-09-19T01:17:16.774Z,14.73
2018-09-19T01:18:17.045Z,14.78
2018-09-19T01:19:16.337Z,14.77
2018-09-19T01:20:16.629Z,14.77
2018-09-19T01:21:16.664Z,14.76
2018-09-19T01:22:16.930Z,14.78
2018-09-19T01:23:17.193Z,14.80
2018-09-19T01:24:16.470Z,14.83
2018-09-19T01:25:16.786Z,14.85
2018-09-19T01:26:17.068Z,14.88
2018-09-19T01:27:16.392Z,14.84
2018-09-19T01:28:16.668Z,14.84
2018-09-19T01:29:16.934Z,14.84
2018-09-19T01:30:17.227Z,14.83
2018-09-19T01:31:16.267Z,14.84
2018-09-19T01:32:16.541Z,14.85
2018-09-19T01:33:16.820Z,14.80
2018-09-19T01:34:17.098Z,14.84
2018-09-19T01:35:16.370Z,14.83
2018-09-19T01:36:16.646Z,14.94
2018-09-19T01:37:16.923Z,14.99
2018-09-19T01:38:17.208Z,14.94
2018-09-19T01:39:16.500Z,14.95
2018-09-19T01:40:16.773Z,14.94
2018-09-19T01:41:16.824Z,14.94
2018-09-19T01:42:17.567Z,14.88
2018-09-19T01:43:16.863Z,14.91
2018-09-19T01:44:17.156Z,14.95
2018-09-19T01:45:16.455Z,15.04
2018-09-19T01:46:16.745Z,15.06
2018-09-19T01:47:17.018Z,15.06
2018-09-19T01:48:16.293Z,15.06
2018-09-19T01:49:16.577Z,15.08
2018-09-19T01:50:16.885Z,15.12
2018-09-19T01:51:16.919Z,15.09
2018-09-19T01:52:17.198Z,15.09
2018-09-19T01:53:16.472Z,15.09
2018-09-19T01:54:16.743Z,15.04
2018-09-19T01:55:17.025Z,15.04
2018-09-19T01:56:16.306Z,15.05
2018-09-19T01:57:16.591Z,15.06
2018-09-19T01:58:16.863Z,15.04
2018-09-19T01:59:17.129Z,15.06
2018-09-19T02:00:16.406Z,15.05
2018-09-19T02:01:16.461Z,15.09
2018-09-19T02:02:16.738Z,15.08
2018-09-19T02:03:17.352Z,15.04
2018-09-19T02:04:16.629Z,15.01
2018-09-19T02:05:16.902Z,15.01
2018-09-19T02:06:17.168Z,14.99
2018-09-19T02:07:16.445Z,15.08
2018-09-19T02:08:16.710Z,15.08
2018-09-19T02:09:16.975Z,15.05
2018-09-19T02:10:16.243Z,15.04
2018-09-19T02:11:16.296Z,15.05
2018-09-19T02:12:16.577Z,15.06
2018-09-19T02:13:16.858Z,15.06
2018-09-19T02:14:17.136Z,15.02
2018-09-19T02:15:16.420Z,15.14
2018-09-19T02:16:16.688Z,15.15
2018-09-19T02:17:16.972Z,15.19
2018-09-19T02:18:16.254Z,15.12
2018-09-19T02:19:16.627Z,15.11
2018-09-19T02:20:16.914Z,15.08
2018-09-19T02:21:16.964Z,15.11
2018-09-19T02:22:16.234Z,15.12
2018-09-19T02:23:16.524Z,15.12
2018-09-19T02:24:16.850Z,15.14
2018-09-19T02:25:17.130Z,15.15
2018-09-19T02:26:16.410Z,15.12
2018-09-19T02:27:16.681Z,15.12
2018-09-19T02:28:16.957Z,15.09
2018-09-19T02:29:16.240Z,15.08
2018-09-19T02:30:16.533Z,15.06
2018-09-19T02:31:16.565Z,15.04
2018-09-19T02:32:16.841Z,15.01
2018-09-19T02:33:17.115Z,15.08
2018-09-19T02:34:16.386Z,15.06
2018-09-19T02:35:16.703Z,15.04
2018-09-19T02:36:17.065Z,14.99
2018-09-19T02:37:16.377Z,15.01
2018-09-19T02:38:16.653Z,14.99
2018-09-19T02:39:16.929Z,14.99
2018-09-19T02:40:17.218Z,14.97
2018-09-19T02:41:16.253Z,14.99
2018-09-19T02:42:16.518Z,14.99
2018-09-19T02:43:16.784Z,15.02
2018-09-19T02:44:17.066Z,15.06
2018-09-19T02:45:16.351Z,15.11
2018-09-19T02:46:16.610Z,15.26
2018-09-19T02:47:16.884Z,15.31
2018-09-19T02:48:17.159Z,15.32
2018-09-19T02:49:16.431Z,15.35
2018-09-19T02:50:16.711Z,15.33
2018-09-19T02:51:16.744Z,15.33
2018-09-19T02:52:17.043Z,15.32
2018-09-19T02:53:16.313Z,15.28
2018-09-19T02:54:16.591Z,15.23
2018-09-19T02:55:16.870Z,15.19
2018-09-19T02:56:17.157Z,15.16
2018-09-19T02:57:16.435Z,15.11
2018-09-19T02:58:16.725Z,15.11
2018-09-19T02:59:16.989Z,15.11
2018-09-19T03:00:16.500Z,15.08
2018-09-19T03:01:16.528Z,15.04
2018-09-19T03:02:16.816Z,15.05
2018-09-19T03:03:17.087Z,15.06
2018-09-19T03:04:16.348Z,15.11
2018-09-19T03:05:16.639Z,15.08
2018-09-19T03:06:16.932Z,15.14
2018-09-19T03:07:17.217Z,15.14
2018-09-19T03:08:16.510Z,15.08
2018-09-19T03:09:16.793Z,15.06
2018-09-19T03:10:17.336Z,15.04
2018-09-19T03:11:17.109Z,15.02
2018-09-19T03:12:16.376Z,15.05
2018-09-19T03:13:16.654Z,15.08
2018-09-19T03:14:16.939Z,15.06
2018-09-19T03:15:16.225Z,15.06
2018-09-19T03:16:16.524Z,15.04
2018-09-19T03:17:16.868Z,15.04
2018-09-19T03:18:16.372Z,14.98
2018-09-19T03:19:16.663Z,14.97
2018-09-19T03:20:16.974Z,14.98
2018-09-19T03:21:17.015Z,14.97
2018-09-19T03:22:16.291Z,14.98
2018-09-19T03:23:16.566Z,15.01
2018-09-19T03:24:16.833Z,14.99
2018-09-19T03:25:17.121Z,14.98
2018-09-19T03:26:16.395Z,15.01
2018-09-19T03:27:16.680Z,15.05
2018-09-19T03:28:16.945Z,15.01
2018-09-19T03:29:16.224Z,15.02
2018-09-19T03:30:16.525Z,15.04
2018-09-19T03:31:16.556Z,15.06
2018-09-19T03:32:16.829Z,15.04
2018-09-19T03:33:17.117Z,14.98
2018-09-19T03:34:16.393Z,14.98
2018-09-19T03:35:16.730Z,15.01
2018-09-19T03:36:17.131Z,14.99
2018-09-19T03:37:16.411Z,14.98
2018-09-19T03:38:16.685Z,14.97
2018-09-19T03:39:16.960Z,14.97
2018-09-19T03:40:16.382Z,14.97
2018-09-19T03:41:16.446Z,15.02
2018-09-19T03:42:16.738Z,15.04
2018-09-19T03:43:17.005Z,15.09
2018-09-19T03:44:16.273Z,15.08
2018-09-19T03:45:16.551Z,15.06
2018-09-19T03:46:16.827Z,15.08
2018-09-19T03:47:17.101Z,15.06
2018-09-19T03:48:16.382Z,15.09
2018-09-19T03:49:16.648Z,15.09
2018-09-19T03:50:16.949Z,15.09
2018-09-19T03:51:16.967Z,15.09
2018-09-19T03:52:16.269Z,15.12
2018-09-19T03:53:16.545Z,15.12
2018-09-19T03:54:16.811Z,15.12
2018-09-19T03:55:17.094Z,15.12
2018-09-19T03:56:16.368Z,15.08
2018-09-19T03:57:16.648Z,15.12
2018-09-19T03:58:16.947Z,15.12
2018-09-19T03:59:16.384Z,15.19
2018-09-19T04:00:16.679Z,15.21
2018-09-19T04:01:16.722Z,15.19
2018-09-19T04:02:16.999Z,15.19
2018-09-19T04:03:16.269Z,15.19
2018-09-19T04:04:16.547Z,15.18
2018-09-19T04:05:16.826Z,15.16
2018-09-19T04:06:17.098Z,15.19
2018-09-19T04:07:16.366Z,15.22
2018-09-19T04:08:16.641Z,15.23
2018-09-19T04:09:16.909Z,15.28
2018-09-19T04:10:17.193Z,15.36
2018-09-19T04:11:16.233Z,15.38
2018-09-19T04:12:16.514Z,15.41
2018-09-19T04:13:16.784Z,15.42
2018-09-19T04:14:17.056Z,15.39
2018-09-19T04:15:16.358Z,15.39
2018-09-19T04:16:16.642Z,15.43
2018-09-19T04:17:16.914Z,15.42
2018-09-19T04:18:16.291Z,15.39
2018-09-19T04:19:16.571Z,15.49
2018-09-19T04:20:16.847Z,15.52
2018-09-19T04:21:16.895Z,15.47
2018-09-19T04:22:17.182Z,15.60
2018-09-19T04:23:16.466Z,15.64
2018-09-19T04:24:16.749Z,15.62
2018-09-19T04:25:17.035Z,15.80
2018-09-19T04:26:16.363Z,15.90
2018-09-19T04:27:16.650Z,15.98
2018-09-19T04:28:16.930Z,16.09
2018-09-19T04:29:17.200Z,16.05
2018-09-19T04:30:16.493Z,16.18
2018-09-19T04:31:16.554Z,16.33
2018-09-19T04:32:16.893Z,16.29
2018-09-19T04:33:16.306Z,16.15
2018-09-19T04:34:16.594Z,16.15
2018-09-19T04:35:16.869Z,16.12
2018-09-19T04:36:17.151Z,16.15
2018-09-19T04:37:16.424Z,16.47
2018-09-19T04:38:16.733Z,16.36
2018-09-19T04:39:17.009Z,16.38
2018-09-19T04:40:16.298Z,16.39
2018-09-19T04:41:16.336Z,16.39
2018-09-19T04:42:16.619Z,16.28
2018-09-19T04:43:16.897Z,16.62
2018-09-19T04:44:17.194Z,16.60
2018-09-19T04:45:16.649Z,16.39
2018-09-19T04:46:16.220Z,16.52
2018-09-19T04:47:16.505Z,16.63
2018-09-19T04:48:16.877Z,16.49
2018-09-19T04:49:16.244Z,16.52
2018-09-19T04:50:16.525Z,16.53
2018-09-19T04:51:16.588Z,16.55
2018-09-19T04:52:16.901Z,16.66
2018-09-19T04:53:17.179Z,16.73
2018-09-19T04:54:16.454Z,16.74
2018-09-19T04:55:16.736Z,16.76
2018-09-19T04:56:17.020Z,16.59
2018-09-19T04:57:16.291Z,16.63
2018-09-19T04:58:16.571Z,16.63
2018-09-19T04:59:16.841Z,16.59
2018-09-19T05:00:17.105Z,16.71
2018-09-19T05:01:17.152Z,16.83
2018-09-19T05:02:16.425Z,16.84
2018-09-19T05:03:16.697Z,16.80
2018-09-19T05:04:16.991Z,16.78
2018-09-19T05:05:16.274Z,16.78
2018-09-19T05:06:16.547Z,16.78
2018-09-19T05:07:16.864Z,16.76
2018-09-19T05:08:16.269Z,16.71
2018-09-19T05:09:16.558Z,16.93
2018-09-19T05:10:16.859Z,16.87
2018-09-19T05:11:16.919Z,16.78
2018-09-19T05:12:16.260Z,16.77
2018-09-19T05:13:16.542Z,16.78
2018-09-19T05:14:16.810Z,16.76
2018-09-19T05:15:17.091Z,16.73
2018-09-19T05:16:16.357Z,16.73
2018-09-19T05:17:16.616Z,16.77
2018-09-19T05:18:16.881Z,16.78
2018-09-19T05:19:17.176Z,16.74
2018-09-19T05:20:16.463Z,16.70
2018-09-19T05:21:16.509Z,16.80
2018-09-19T05:22:16.784Z,16.80
2018-09-19T05:23:17.048Z,16.73
2018-09-19T05:24:16.321Z,16.73
2018-09-19T05:25:16.610Z,16.86
2018-09-19T05:26:16.877Z,16.84
2018-09-19T05:27:17.156Z,16.84
2018-09-19T05:28:16.437Z,16.78
2018-09-19T05:29:16.729Z,16.84
2018-09-19T05:30:17.014Z,16.76
2018-09-19T05:31:17.035Z,16.86
2018-09-19T05:32:16.316Z,16.87
2018-09-19T05:33:16.580Z,16.84
2018-09-19T05:34:16.860Z,16.80
2018-09-19T05:35:17.217Z,16.77
2018-09-19T05:36:16.526Z,16.68
2018-09-19T05:37:16.825Z,16.70
2018-09-19T05:38:17.106Z,16.66
2018-09-19T05:39:16.379Z,16.71
2018-09-19T05:40:16.666Z,16.67
2018-09-19T05:41:16.704Z,16.67
2018-09-19T05:42:17.002Z,16.78
2018-09-19T05:43:16.280Z,16.80
2018-09-19T05:44:16.573Z,16.76
2018-09-19T05:45:16.830Z,16.76
2018-09-19T05:46:17.221Z,16.70
2018-09-19T05:47:16.594Z,16.71
2018-09-19T05:48:16.864Z,16.73
2018-09-19T05:49:17.178Z,16.78
2018-09-19T05:50:16.485Z,16.77
2018-09-19T05:51:16.490Z,16.67
2018-09-19T05:52:16.770Z,16.66
2018-09-19T05:53:17.032Z,16.71
2018-09-19T05:54:16.306Z,16.70
2018-09-19T05:55:16.595Z,16.76
2018-09-19T05:56:16.866Z,16.74
2018-09-19T05:57:17.148Z,16.68
2018-09-19T05:58:16.408Z,16.62
2018-09-19T05:59:16.673Z,16.63
2018-09-19T06:00:16.973Z,16.53
2018-09-19T06:01:16.997Z,16.52
2018-09-19T06:02:16.278Z,16.53
2018-09-19T06:03:16.543Z,16.55
2018-09-19T06:04:16.831Z,16.49
2018-09-19T06:05:17.204Z,16.49
2018-09-19T06:06:16.477Z,16.64
2018-09-19T06:07:16.765Z,16.68
2018-09-19T06:08:17.041Z,16.60
2018-09-19T06:09:16.316Z,16.68
2018-09-19T06:10:16.602Z,16.70
2018-09-19T06:11:16.654Z,16.68
2018-09-19T06:12:16.915Z,16.70
2018-09-19T06:13:17.188Z,16.73
2018-09-19T06:14:16.468Z,16.74
2018-09-19T06:15:16.787Z,16.77
2018-09-19T06:16:17.152Z,16.70
2018-09-19T06:17:16.431Z,16.68
2018-09-19T06:18:16.705Z,16.68
2018-09-19T06:19:16.986Z,16.70
2018-09-19T06:20:16.278Z,16.68
2018-09-19T06:21:16.310Z,16.67
2018-09-19T06:22:16.581Z,16.67
2018-09-19T06:23:16.850Z,16.68
2018-09-19T06:24:17.118Z,16.70
2018-09-19T06:25:16.410Z,16.76
2018-09-19T06:26:16.711Z,16.93
2018-09-19T06:27:16.985Z,16.94
2018-09-19T06:28:16.272Z,16.93
2018-09-19T06:29:16.563Z,17.00
2018-09-19T06:30:16.859Z,17.03
2018-09-19T06:31:16.899Z,17.13
2018-09-19T06:32:17.182Z,17.10
2018-09-19T06:33:16.577Z,17.11
2018-09-19T06:34:16.991Z,17.32
2018-09-19T06:35:16.260Z,17.36
2018-09-19T06:36:16.532Z,17.45
2018-09-19T06:37:16.822Z,17.53
2018-09-19T06:38:17.094Z,17.63
2018-09-19T06:39:16.362Z,17.74
2018-09-19T06:40:16.709Z,18.04
2018-09-19T06:41:16.692Z,18.05
2018-09-19T06:42:16.960Z,17.98
2018-09-19T06:43:16.236Z,17.90
2018-09-19T06:44:16.506Z,17.91
2018-09-19T06:45:16.798Z,17.94
2018-09-19T06:46:17.079Z,18.03
2018-09-19T06:47:16.355Z,18.05
2018-09-19T06:48:16.623Z,18.17
2018-09-19T06:49:16.897Z,18.28
2018-09-19T06:50:17.188Z,18.31
2018-09-19T06:51:16.211Z,18.33
2018-09-19T06:52:16.568Z,18.49
2018-09-19T06:53:16.872Z,18.51
2018-09-19T06:54:17.138Z,18.56
2018-09-19T06:55:16.413Z,18.67
2018-09-19T06:56:16.697Z,18.65
2018-09-19T06:57:16.990Z,18.62
2018-09-19T06:58:16.266Z,18.66
2018-09-19T06:59:16.558Z,18.70
2018-09-19T07:00:16.836Z,18.70
2018-09-19T07:01:16.884Z,18.82
2018-09-19T07:02:17.149Z,18.80
2018-09-19T07:03:16.428Z,18.79
2018-09-19T07:04:16.696Z,18.77
2018-09-19T07:05:16.968Z,18.80
2018-09-19T07:06:16.230Z,18.75
2018-09-19T07:07:16.504Z,18.72
2018-09-19T07:08:16.778Z,18.75
2018-09-19T07:09:17.050Z,18.72
2018-09-19T07:10:16.335Z,18.72
2018-09-19T07:11:16.382Z,18.73
2018-09-19T07:12:16.663Z,18.75
2018-09-19T07:13:16.950Z,18.79
2018-09-19T07:14:16.217Z,18.80
2018-09-19T07:15:16.499Z,18.83
2018-09-19T07:16:16.772Z,18.83
2018-09-19T07:17:17.060Z,18.86
2018-09-19T07:18:16.341Z,18.90
2018-09-19T07:19:16.616Z,18.97
2018-09-19T07:20:16.912Z,19.00
2018-09-19T07:21:16.941Z,19.05
2018-09-19T07:22:16.259Z,19.10
2018-09-19T07:23:16.522Z,19.14
2018-09-19T07:24:16.796Z,19.15
2018-09-19T07:25:17.123Z,19.25
2018-09-19T07:26:16.584Z,19.30
2018-09-19T07:27:16.857Z,19.38
2018-09-19T07:28:17.125Z,19.52
2018-09-19T07:29:16.408Z,19.56
2018-09-19T07:30:16.689Z,19.60
2018-09-19T07:31:16.848Z,19.86
2018-09-19T07:32:17.139Z,19.94
2018-09-19T07:33:16.426Z,20.00
2018-09-19T07:34:16.716Z,20.01
2018-09-19T07:35:17.005Z,20.08
2018-09-19T07:36:16.274Z,20.07
2018-09-19T07:37:16.549Z,20.10
2018-09-19T07:38:16.840Z,20.14
2018-09-19T07:39:17.125Z,20.16
2018-09-19T07:40:16.482Z,20.27
2018-09-19T07:41:16.461Z,20.28
2018-09-19T07:42:16.731Z,20.38
2018-09-19T07:43:17.009Z,20.46
2018-09-19T07:44:16.276Z,20.52
2018-09-19T07:45:16.580Z,20.60
2018-09-19T07:46:16.851Z,20.65
2018-09-19T07:47:17.473Z,20.75
2018-09-19T07:48:16.751Z,20.73
2018-09-19T07:49:17.034Z,20.83
2018-09-19T07:50:16.321Z,20.89
2018-09-19T07:51:16.350Z,20.93
2018-09-19T07:52:16.631Z,20.92
2018-09-19T07:53:17.208Z,20.94
2018-09-19T07:54:16.485Z,20.92
2018-09-19T07:55:16.799Z,20.97
2018-09-19T07:56:17.210Z,21.03
2018-09-19T07:57:16.487Z,21.03
2018-09-19T07:58:16.762Z,21.10
2018-09-19T07:59:17.034Z,21.17
2018-09-19T08:00:16.321Z,21.13
2018-09-19T08:01:16.473Z,21.20
2018-09-19T08:02:16.985Z,21.24
2018-09-19T08:03:16.252Z,21.06
2018-09-19T08:04:16.521Z,21.15
2018-09-19T08:05:16.829Z,21.25
2018-09-19T08:06:17.112Z,21.33
2018-09-19T08:07:18.056Z,21.42
2018-09-19T08:08:16.328Z,21.42
2018-09-19T08:09:16.721Z,21.36
2018-09-19T08:10:16.281Z,21.41
2018-09-19T08:11:16.308Z,21.27
2018-09-19T08:12:16.582Z,21.34
2018-09-19T08:13:16.843Z,21.48
2018-09-19T08:14:17.123Z,21.52
2018-09-19T08:15:16.413Z,21.65
2018-09-19T08:16:16.694Z,21.68
2018-09-19T08:17:16.958Z,21.73
2018-09-19T08:18:16.235Z,21.68
2018-09-19T08:19:16.515Z,21.64
2018-09-19T08:20:16.814Z,21.59
2018-09-19T08:21:16.833Z,21.57
2018-09-19T08:22:17.109Z,21.59
2018-09-19T08:23:16.377Z,21.62
2018-09-19T08:24:16.648Z,21.62
2018-09-19T08:25:16.917Z,21.55
2018-09-19T08:26:16.211Z,21.47
2018-09-19T08:27:16.492Z,21.47
2018-09-19T08:28:16.776Z,21.44
2018-09-19T08:29:17.041Z,21.51
2018-09-19T08:30:16.343Z,21.45
2018-09-19T08:31:16.380Z,21.44
2018-09-19T08:32:16.705Z,21.42
2018-09-19T08:33:16.984Z,21.44
2018-09-19T08:34:16.253Z,21.42
2018-09-19T08:35:16.521Z,21.44
2018-09-19T08:36:16.792Z,21.25
2018-09-19T08:37:17.087Z,21.27
2018-09-19T08:38:16.371Z,21.38
2018-09-19T08:39:16.644Z,21.34
2018-09-19T08:40:16.933Z,21.03
2018-09-19T08:41:16.955Z,21.09
2018-09-19T08:42:16.244Z,21.15
2018-09-19T08:43:16.527Z,21.13
2018-09-19T08:44:16.802Z,21.31
2018-09-19T08:45:17.071Z,21.47
2018-09-19T08:46:16.339Z,21.44
2018-09-19T08:47:16.633Z,21.51
2018-09-19T08:48:16.902Z,21.49
2018-09-19T08:49:17.172Z,21.54
2018-09-19T08:50:16.466Z,21.69
2018-09-19T08:51:16.513Z,21.68
2018-09-19T08:52:16.806Z,21.78
2018-09-19T08:53:17.075Z,21.72
2018-09-19T08:54:16.341Z,21.85
2018-09-19T08:55:16.634Z,21.93
2018-09-19T08:56:16.903Z,21.99
2018-09-19T08:57:17.199Z,22.19
2018-09-19T08:58:16.469Z,22.21
2018-09-19T08:59:16.740Z,22.37
2018-09-19T09:00:17.022Z,22.43
2018-09-19T09:01:17.061Z,22.45
2018-09-19T09:02:16.338Z,22.57
2018-09-19T09:03:16.621Z,22.55
2018-09-19T09:04:16.908Z,22.58
2018-09-19T09:05:17.214Z,22.40
2018-09-19T09:06:16.640Z,22.41
2018-09-19T09:07:16.908Z,22.51
2018-09-19T09:08:17.181Z,22.60
2018-09-19T09:09:16.464Z,22.62
2018-09-19T09:10:16.736Z,22.50
2018-09-19T09:11:16.790Z,22.57
2018-09-19T09:12:17.163Z,22.55
2018-09-19T09:13:16.643Z,22.60
2018-09-19T09:14:16.924Z,22.62
2018-09-19T09:15:17.214Z,22.50
2018-09-19T09:16:16.488Z,22.64
2018-09-19T09:17:16.754Z,22.62
2018-09-19T09:18:17.030Z,22.70
2018-09-19T09:19:16.412Z,22.58
2018-09-19T09:20:16.706Z,22.55
2018-09-19T09:21:16.738Z,22.31
2018-09-19T09:22:17.022Z,22.35
2018-09-19T09:23:16.299Z,22.35
2018-09-19T09:24:16.587Z,22.33
2018-09-19T09:25:16.913Z,22.34
2018-09-19T09:26:17.194Z,22.44
2018-09-19T09:27:16.558Z,22.38
2018-09-19T09:28:16.892Z,22.40
2018-09-19T09:29:17.182Z,22.43
2018-09-19T09:30:16.476Z,22.48
2018-09-19T09:31:16.565Z,22.47
2018-09-19T09:33:17.176Z,22.35
2018-09-19T09:34:16.489Z,22.13
2018-09-19T09:35:16.904Z,22.10
2018-09-19T09:36:17.180Z,22.15
2018-09-19T09:37:16.448Z,22.13
2018-09-19T09:38:16.718Z,22.10
2018-09-19T09:39:16.992Z,22.12
2018-09-19T09:40:16.365Z,22.06
2018-09-19T09:41:16.317Z,22.09
2018-09-19T09:42:16.596Z,22.03
2018-09-19T09:43:16.869Z,21.99
2018-09-19T09:44:17.173Z,21.88
2018-09-19T09:45:16.520Z,21.83
2018-09-19T09:46:16.804Z,21.79
2018-09-19T09:47:17.083Z,21.80
2018-09-19T09:48:16.365Z,21.88
2018-09-19T09:49:16.648Z,21.82
2018-09-19T09:50:16.995Z,21.80
2018-09-19T09:51:16.998Z,21.75
2018-09-19T09:52:16.298Z,21.75
2018-09-19T09:53:16.581Z,21.76
2018-09-19T09:54:16.999Z,21.68
2018-09-19T09:55:16.314Z,21.65
2018-09-19T09:56:16.739Z,21.62
2018-09-19T09:57:17.010Z,21.57
2018-09-19T09:58:16.282Z,21.54
2018-09-19T09:59:16.567Z,21.58
2018-09-19T10:00:16.931Z,21.61
2018-09-19T10:01:16.989Z,21.57
2018-09-19T10:02:16.272Z,21.58
2018-09-19T10:03:16.547Z,21.57
2018-09-19T10:04:16.818Z,21.55
2018-09-19T10:05:17.108Z,21.55
2018-09-19T10:06:16.430Z,21.54
2018-09-19T10:07:16.750Z,21.62
2018-09-19T10:08:17.014Z,21.64
2018-09-19T10:09:16.289Z,21.66
2018-09-19T10:10:16.566Z,21.64
2018-09-19T10:11:16.599Z,21.73
2018-09-19T10:12:16.871Z,21.75
2018-09-19T10:13:17.144Z,21.86
2018-09-19T10:14:16.415Z,21.97
2018-09-19T10:15:16.690Z,21.96
2018-09-19T10:16:16.959Z,22.12
2018-09-19T10:17:16.222Z,22.15
2018-09-19T10:18:16.508Z,22.09
2018-09-19T10:19:16.780Z,22.05
2018-09-19T10:20:17.064Z,22.03
2018-09-19T10:21:16.348Z,21.95
2018-09-19T10:22:16.624Z,21.93
2018-09-19T10:23:16.887Z,21.88
2018-09-19T10:24:17.159Z,21.91
2018-09-19T10:25:16.426Z,21.88
2018-09-19T10:26:16.689Z,21.82
2018-09-19T10:27:16.962Z,21.83
2018-09-19T10:28:16.239Z,21.80
2018-09-19T10:29:16.506Z,21.58
2018-09-19T10:30:16.832Z,21.48
2018-09-19T10:31:16.833Z,21.48
2018-09-19T10:32:17.108Z,21.59
2018-09-19T10:33:16.382Z,21.55
2018-09-19T10:34:16.647Z,21.54
2018-09-19T10:35:16.936Z,21.49
2018-09-19T10:36:16.304Z,21.41
2018-09-19T10:37:16.579Z,21.41
2018-09-19T10:38:16.839Z,21.48
2018-09-19T10:39:17.126Z,21.47
2018-09-19T10:40:16.427Z,21.40
2018-09-19T10:41:16.451Z,21.40
2018-09-19T10:42:16.723Z,21.48
2018-09-19T10:43:17.008Z,21.40
2018-09-19T10:44:16.285Z,21.61
2018-09-19T10:45:16.560Z,21.61
2018-09-19T10:46:16.832Z,21.58
2018-09-19T10:47:17.092Z,21.59
2018-09-19T10:48:16.371Z,21.66
2018-09-19T10:49:16.659Z,21.66
2018-09-19T10:50:16.971Z,21.80
2018-09-19T10:51:17.028Z,21.83
2018-09-19T10:52:16.307Z,21.80
2018-09-19T10:53:16.568Z,21.85
2018-09-19T10:54:16.841Z,21.86
2018-09-19T10:55:17.136Z,21.95
2018-09-19T10:56:16.416Z,22.00
2018-09-19T10:57:16.679Z,22.02
2018-09-19T10:58:16.950Z,21.99
2018-09-19T10:59:16.247Z,22.09
2018-09-19T11:00:16.536Z,22.13
2018-09-19T11:01:16.581Z,22.13
2018-09-19T11:02:16.845Z,22.10
2018-09-19T11:03:17.146Z,22.23
2018-09-19T11:04:16.414Z,22.30
2018-09-19T11:05:16.686Z,22.12
2018-09-19T11:06:16.956Z,22.30
2018-09-19T11:07:16.232Z,22.24
2018-09-19T11:08:16.493Z,22.26
2018-09-19T11:09:16.765Z,22.27
2018-09-19T11:10:17.071Z,22.62
2018-09-19T11:11:17.107Z,22.61
2018-09-19T11:12:16.377Z,22.61
2018-09-19T11:13:16.645Z,22.68
2018-09-19T11:14:16.925Z,22.75
2018-09-19T11:15:17.191Z,23.00
2018-09-19T11:16:16.459Z,23.03
2018-09-19T11:17:16.731Z,23.16
2018-09-19T11:18:16.996Z,23.23
2018-09-19T11:19:16.285Z,23.23
2018-09-19T11:20:16.590Z,23.18
2018-09-19T11:21:16.614Z,23.15
2018-09-19T11:22:16.883Z,23.15
2018-09-19T11:23:17.150Z,23.39
2018-09-19T11:24:16.416Z,23.46
2018-09-19T11:25:16.689Z,23.36
2018-09-19T11:26:16.969Z,23.41
2018-09-19T11:27:16.271Z,23.65
2018-09-19T11:28:16.536Z,23.71
2018-09-19T11:29:16.810Z,23.67
2018-09-19T11:30:17.091Z,23.61
2018-09-19T11:31:17.121Z,23.69
2018-09-19T11:32:16.402Z,23.71
2018-09-19T11:33:16.665Z,23.83
2018-09-19T11:34:16.936Z,23.98
2018-09-19T11:35:16.217Z,24.19
2018-09-19T11:36:16.491Z,24.22
2018-09-19T11:37:16.750Z,24.19
2018-09-19T11:38:17.020Z,24.08
2018-09-19T11:39:16.295Z,24.09
2018-09-19T11:40:16.569Z,24.04
2018-09-19T11:41:16.642Z,23.99
2018-09-19T11:42:16.913Z,24.11
2018-09-19T11:43:17.194Z,24.24
2018-09-19T11:44:16.555Z,24.19
2018-09-19T11:45:16.821Z,24.35
2018-09-19T11:46:17.102Z,24.20
2018-09-19T11:47:16.359Z,24.20
2018-09-19T11:48:16.634Z,24.17
2018-09-19T11:49:16.903Z,24.20
2018-09-19T11:50:17.174Z,24.43
2018-09-19T11:51:16.215Z,24.30
2018-09-19T11:52:16.488Z,24.47
2018-09-19T11:53:16.755Z,24.42
2018-09-19T11:54:17.023Z,24.68
2018-09-19T11:55:16.296Z,24.60
2018-09-19T11:56:16.558Z,24.66
2018-09-19T11:57:16.825Z,24.53
2018-09-19T11:58:17.092Z,24.40
2018-09-19T11:59:16.368Z,24.56
2018-09-19T12:00:16.668Z,24.61
2018-09-19T12:01:16.707Z,24.67
2018-09-19T12:02:16.970Z,24.75
2018-09-19T12:03:16.244Z,24.77
2018-09-19T12:04:16.521Z,24.92
2018-09-19T12:05:16.787Z,24.91
2018-09-19T12:06:17.059Z,24.75
2018-09-19T12:07:16.365Z,24.89
2018-09-19T12:08:16.669Z,25.14
2018-09-19T12:09:16.946Z,25.16
2018-09-19T12:10:16.228Z,25.01
2018-09-19T12:11:16.293Z,24.88
2018-09-19T12:12:16.564Z,24.71
2018-09-19T12:13:16.828Z,24.68
2018-09-19T12:14:17.111Z,24.81
2018-09-19T12:15:16.398Z,25.01
2018-09-19T12:16:16.665Z,25.11
2018-09-19T12:17:16.932Z,25.25
2018-09-19T12:18:17.206Z,25.19
2018-09-19T12:19:16.486Z,25.26
2018-09-19T12:20:16.761Z,25.18
2018-09-19T12:21:16.802Z,25.15
2018-09-19T12:22:17.065Z,25.16
2018-09-19T12:23:16.337Z,25.30
2018-09-19T12:24:16.619Z,25.25
2018-09-19T12:25:16.902Z,25.32
2018-09-19T12:26:17.224Z,25.16
2018-09-19T12:27:16.589Z,25.16
2018-09-19T12:28:16.850Z,25.12
2018-09-19T12:29:17.131Z,25.57
2018-09-19T12:30:16.415Z,25.46
2018-09-19T12:31:16.443Z,25.46
2018-09-19T12:32:16.714Z,25.42
2018-09-19T12:33:17.045Z,25.47
2018-09-19T12:34:16.436Z,25.59
2018-09-19T12:35:16.732Z,25.62
2018-09-19T12:36:17.011Z,25.67
2018-09-19T12:37:16.279Z,25.69
2018-09-19T12:38:16.545Z,25.60
2018-09-19T12:39:16.818Z,25.57
2018-09-19T12:40:17.103Z,25.79
2018-09-19T12:41:17.138Z,25.67
2018-09-19T12:42:16.406Z,25.97
2018-09-19T12:43:16.677Z,26.09
2018-09-19T12:44:16.943Z,26.18
2018-09-19T12:45:16.227Z,26.04
2018-09-19T12:46:16.510Z,25.84
2018-09-19T12:47:16.793Z,25.72
2018-09-19T12:48:17.055Z,25.73
2018-09-19T12:49:16.397Z,25.60
2018-09-19T12:50:16.684Z,25.64
2018-09-19T12:51:16.734Z,25.73
2018-09-19T12:52:17.015Z,26.01
2018-09-19T12:53:16.319Z,25.90